Time;durP1;ratioP1;P1;durP2;ratioP2;P2;SDS_P1;SDS_P2;PMS_P1;PMS_P2;Temp;Humidity;BMP_temperature;BMP_pressure;BME280_temperature;BME280_humidity;BME280_pressure;Samples;Min_cycle;Max_cycle;Signal;HPM_P1;HPM_P2
2023/09/17 00:02:23;;;;;;;;;;;21.20;46.70;;;20.63;47.42;101118.47;12137016;19;20186;-86
2023/09/17 00:06:25;;;;;;;;;;;21.20;46.70;;;20.66;47.69;101126.19;12135338;19;20725;-86
2023/09/17 00:10:26;;;;;;;;;;;21.20;46.70;;;20.55;47.39;101125.34;12137249;19;19926;-86
2023/09/17 00:14:28;;;;;;;;;;;21.20;46.70;;;20.48;47.47;101126.84;12134784;19;19968;-86
2023/09/17 00:18:30;;;;;;;;;;;21.10;46.80;;;20.45;47.53;101124.47;12137585;19;19926;-86
2023/09/17 00:22:31;;;;;;;;;;;21.00;46.70;;;20.38;47.57;101118.03;12136222;19;20572;-86
2023/09/17 00:26:33;;;;;;;;;;;21.00;46.80;;;20.31;47.57;101112.47;12136507;19;19919;-86
2023/09/17 00:30:34;;;;;;;;;;;21.00;46.80;;;20.33;47.62;101113.16;12134862;19;19923;-86
2023/09/17 00:34:36;;;;;;;;;;;20.90;46.80;;;20.30;47.60;101116.06;12135322;19;20200;-86
2023/09/17 00:38:37;;;;;;;;;;;20.90;46.80;;;20.07;47.63;101085.50;12132341;19;19922;-86
2023/09/17 00:42:42;;;;;;;;;;;20.80;46.80;;;20.22;47.63;101123.88;12131668;19;20272;-86
2023/09/17 00:46:44;;;;;;;;;;;20.80;46.80;;;20.17;47.73;101119.97;12131627;19;20204;-86
2023/09/17 00:50:46;;;;;;;;;;;20.70;46.80;;;20.13;48.03;101124.72;12128083;19;19922;-86
2023/09/17 00:54:49;;;;;;;;;;;20.70;46.90;;;20.07;47.74;101119.97;12132647;19;20910;-86
2023/09/17 00:58:52;;;;;;;;;;;20.60;46.90;;;20.06;47.99;101119.13;12130711;19;20436;-86
2023/09/17 01:02:54;;;;;;;;;;;20.60;47.20;;;19.94;47.72;101099.00;12146381;19;19919;-86
2023/09/17 01:06:56;;;;;;;;;;;20.60;46.90;;;19.95;48.03;101110.44;12141628;19;19930;-86
2023/09/17 01:10:57;;;;;;;;;;;20.60;46.90;;;19.97;47.99;101116.44;12140462;19;19918;-86
2023/09/17 01:14:59;;;;;;;;;;;20.60;46.90;;;19.92;48.23;101113.38;12144192;19;19919;-86
2023/09/17 01:19:01;;;;;;;;;;;20.50;46.90;;;19.87;47.91;101108.47;12143242;19;19963;-86
2023/09/17 01:23:10;;;;;;;;;;;20.50;47.40;;;19.89;47.75;101115.31;12142708;19;19919;-86
2023/09/17 01:27:14;;;;;;;;;;;20.50;46.90;;;19.81;48.01;101107.19;12141596;19;19929;-86
2023/09/17 01:31:16;;;;;;;;;;;20.40;46.90;;;19.69;48.03;101091.56;12141225;19;19914;-86
2023/09/17 01:35:18;;;;;;;;;;;20.40;46.90;;;19.77;48.04;101119.06;12143671;19;20362;-86
2023/09/17 01:39:23;;;;;;;;;;;20.40;47.00;;;19.69;48.00;101110.09;12140091;19;19930;-86
2023/09/17 01:43:25;;;;;;;;;;;20.30;46.90;;;19.67;48.03;101118.19;12146156;19;19923;-86
2023/09/17 01:47:28;;;;;;;;;;;20.30;47.00;;;19.52;47.88;101108.88;12140997;19;19930;-86
2023/09/17 01:51:31;;;;;;;;;;;20.20;46.90;;;19.58;48.19;101124.25;12137806;19;19918;-85
2023/09/17 01:55:33;;;;;;;;;;;20.20;47.00;;;19.57;48.19;101122.56;12138204;19;20267;-86
2023/09/17 01:59:34;;;;;;;;;;;20.10;47.00;;;19.48;48.20;101107.47;12140572;19;20674;-87
2023/09/17 02:03:36;;;;;;;;;;;20.10;47.00;;;19.49;48.10;101112.63;12142024;19;19927;-87
2023/09/17 02:07:38;;;;;;;;;;;20.10;47.10;;;19.35;48.23;101097.94;12139983;19;19929;-86
2023/09/17 02:11:41;;;;;;;;;;;20.10;47.10;;;19.40;48.04;101111.63;12136669;19;19966;-86
2023/09/17 02:15:44;;;;;;;;;;;20.00;47.00;;;19.34;48.04;101113.97;12140574;19;19930;-86
2023/09/17 02:19:46;;;;;;;;;;;20.00;47.00;;;19.29;48.23;101106.41;12140752;19;19926;-87
2023/09/17 02:23:48;;;;;;;;;;;20.00;47.10;;;19.18;48.33;101106.50;12140861;19;19927;-86
2023/09/17 02:27:50;;;;;;;;;;;19.90;47.00;;;19.17;48.23;101104.81;12139729;19;19947;-86
2023/09/17 02:31:52;;;;;;;;;;;19.90;47.10;;;19.19;48.07;101116.09;12141208;19;19910;-87
2023/09/17 02:35:53;;;;;;;;;;;19.80;47.10;;;19.15;48.36;101120.00;12139737;19;19930;-87
2023/09/17 02:39:55;;;;;;;;;;;19.80;47.10;;;19.10;48.32;101128.31;12138274;19;20238;-87
2023/09/17 02:43:59;;;;;;;;;;;19.80;47.10;;;19.04;48.48;101120.91;12138670;19;20411;-87
2023/09/17 02:48:00;;;;;;;;;;;19.70;47.10;;;19.02;48.43;101131.63;12135668;19;20002;-86
2023/09/17 02:52:02;;;;;;;;;;;19.70;47.10;;;18.93;48.29;101113.88;12139151;19;19918;-87
2023/09/17 02:56:04;;;;;;;;;;;19.60;47.10;;;18.92;48.23;101122.75;12138415;19;19947;-86
2023/09/17 03:00:10;;;;;;;;;;;19.60;47.10;;;18.75;48.25;101107.47;12135017;19;19990;-86
2023/09/17 03:04:12;;;;;;;;;;;19.50;47.00;;;18.80;48.40;101118.53;12138877;19;20279;-86
2023/09/17 03:08:14;;;;;;;;;;;19.50;47.20;;;18.67;48.44;101097.50;12134481;19;19918;-86
2023/09/17 03:12:20;;;;;;;;;;;19.40;47.30;;;18.73;48.48;101122.59;12137983;19;19922;-86
2023/09/17 03:16:22;;;;;;;;;;;19.40;47.20;;;18.68;48.64;101117.69;12136148;19;19963;-86
2023/09/17 03:20:27;;;;;;;;;;;19.40;47.30;;;18.50;48.52;101092.78;12134941;19;19934;-86
2023/09/17 03:24:28;;;;;;;;;;;19.30;47.20;;;18.51;48.45;101108.50;12134763;19;20341;-87
2023/09/17 03:28:32;;;;;;;;;;;19.20;47.40;;;18.46;48.24;101105.41;12132471;19;20274;-86
2023/09/17 03:32:35;;;;;;;;;;;19.20;47.20;;;18.35;48.57;101102.81;12135559;19;19927;-86
2023/09/17 03:36:37;;;;;;;;;;;19.10;47.20;;;18.40;48.67;101111.19;12138127;19;20674;-86
2023/09/17 03:40:39;;;;;;;;;;;19.10;47.30;;;18.39;48.55;101108.66;12135737;19;20469;-86
2023/09/17 03:44:42;;;;;;;;;;;19.10;47.40;;;18.34;48.52;101106.44;12137608;19;19923;-86
2023/09/17 03:48:46;;;;;;;;;;;19.10;47.40;;;18.38;48.51;101123.72;12131310;19;20660;-86
2023/09/17 03:52:52;;;;;;;;;;;19.00;47.30;;;18.35;48.70;101129.25;12138340;19;19922;-86
2023/09/17 03:56:55;;;;;;;;;;;19.00;47.40;;;18.26;48.71;101111.50;12137654;19;19919;-86
2023/09/17 04:00:57;;;;;;;;;;;19.00;47.40;;;18.32;48.65;101126.84;12135407;19;20725;-86
2023/09/17 04:04:58;;;;;;;;;;;19.00;47.40;;;18.29;48.72;101129.75;12134168;19;19927;-86
2023/09/17 04:09:00;;;;;;;;;;;18.90;47.40;;;18.26;48.68;101130.00;12133770;19;19944;-86
2023/09/17 04:13:02;;;;;;;;;;;18.90;47.40;;;18.23;48.71;101136.38;12134422;19;20299;-86
2023/09/17 04:17:05;;;;;;;;;;;19.00;47.50;;;18.20;48.73;101130.47;12134085;19;20005;-86
2023/09/17 04:21:07;;;;;;;;;;;18.90;47.50;;;18.19;48.64;101134.09;12132523;19;19926;-86
2023/09/17 04:25:10;;;;;;;;;;;18.90;47.40;;;18.12;48.99;101126.69;12134436;19;20784;-86
2023/09/17 04:29:13;;;;;;;;;;;18.90;47.40;;;18.13;48.99;101132.78;12132374;19;19927;-86
2023/09/17 04:33:15;;;;;;;;;;;18.80;47.80;;;18.07;48.92;101128.84;12136612;19;20777;-86
2023/09/17 04:37:19;;;;;;;;;;;18.80;47.50;;;18.09;48.89;101140.16;12143931;19;20382;-86
2023/09/17 04:41:22;;;;;;;;;;;18.80;47.50;;;18.04;48.88;101138.84;12141115;19;19964;-86
2023/09/17 04:45:36;;;;;;;;;;;18.80;47.50;;;18.04;48.88;101144.13;12147423;19;20002;-86
2023/09/17 04:49:44;;;;;;;;;;;18.70;47.50;;;18.04;48.80;101152.06;12142875;19;19926;-86
2023/09/17 04:53:47;;;;;;;;;;;18.70;47.50;;;18.00;49.15;101156.72;12146456;19;20390;-85
2023/09/17 04:57:50;;;;;;;;;;;18.70;47.60;;;17.97;48.96;101159.59;12147943;19;19926;-84
2023/09/17 05:01:51;;;;;;;;;;;18.70;47.40;;;17.95;48.90;101174.75;12146404;19;19942;-84
2023/09/17 05:05:53;;;;;;;;;;;18.70;47.50;;;17.92;49.17;101172.34;12147040;19;19929;-84
2023/09/17 05:09:57;;;;;;;;;;;18.60;47.50;;;17.79;49.19;101156.59;12145161;19;20002;-84
2023/09/17 05:14:00;;;;;;;;;;;18.60;47.60;;;17.83;49.11;101165.16;12149672;19;20381;-84
2023/09/17 05:18:09;;;;;;;;;;;18.60;47.60;;;17.81;49.21;101167.06;12147964;19;19927;-84
2023/09/17 05:22:11;;;;;;;;;;;18.50;47.50;;;17.71;49.10;101158.97;12144839;19;19930;-84
2023/09/17 05:26:14;;;;;;;;;;;18.50;47.50;;;17.74;49.13;101173.75;12145364;19;19918;-84
2023/09/17 05:30:17;;;;;;;;;;;18.50;47.60;;;17.68;49.03;101165.34;12142551;19;20225;-84
2023/09/17 05:34:19;;;;;;;;;;;18.50;47.60;;;17.68;49.18;101169.78;12146582;19;19923;-84
2023/09/17 05:38:21;;;;;;;;;;;18.50;47.60;;;17.66;49.02;101177.84;12144375;19;20783;-84
2023/09/17 05:42:23;;;;;;;;;;;18.40;47.60;;;17.61;49.02;101174.72;12147809;19;20211;-84
2023/09/17 05:46:24;;;;;;;;;;;18.40;47.70;;;17.57;49.32;101169.78;12146249;19;19947;-84
2023/09/17 05:50:26;;;;;;;;;;;18.40;47.80;;;17.40;49.21;101152.63;12141903;19;19919;-84
2023/09/17 05:54:29;;;;;;;;;;;18.40;48.10;;;17.57;49.31;101181.19;12144089;19;19929;-86
2023/09/17 05:58:31;;;;;;;;;;;18.30;47.80;;;17.55;49.24;101182.25;12141099;19;19920;-85
2023/09/17 06:02:33;;;;;;;;;;;18.40;48.00;;;17.57;49.25;101183.84;12137270;19;20748;-85
2023/09/17 06:06:35;;;;;;;;;;;18.40;48.10;;;17.61;49.24;101195.03;12144002;19;20652;-85
2023/09/17 06:10:37;;;;;;;;;;;18.40;48.10;;;17.50;49.33;101187.94;12141392;19;19933;-85
2023/09/17 06:14:39;;;;;;;;;;;18.40;48.10;;;17.63;49.68;101201.88;12146374;19;19927;-85
2023/09/17 06:18:42;;;;;;;;;;;18.40;48.20;;;17.65;49.56;101196.44;12138070;19;19930;-85
2023/09/17 06:22:45;;;;;;;;;;;18.50;48.40;;;17.65;49.56;101207.84;12143258;19;20207;-85
2023/09/17 06:26:47;;;;;;;;;;;18.50;48.40;;;17.77;49.72;101215.78;12143297;19;19949;-86
2023/09/17 06:30:49;;;;;;;;;;;18.60;48.80;;;17.69;49.65;101201.38;12145683;19;19926;-85
2023/09/17 06:34:51;;;;;;;;;;;18.60;48.70;;;17.78;49.69;101201.63;12143317;19;19923;-85
2023/09/17 06:38:53;;;;;;;;;;;18.70;48.90;;;17.81;49.88;101201.41;12144017;19;20988;-86
2023/09/17 06:42:55;;;;;;;;;;;18.80;49.00;;;17.99;49.95;101233.50;12144040;19;19946;-85
2023/09/17 06:46:57;;;;;;;;;;;18.80;49.10;;;17.95;49.78;101214.38;12143686;19;20397;-86
2023/09/17 06:51:01;;;;;;;;;;;18.90;49.30;;;18.09;49.80;101232.66;12142387;19;20634;-86
2023/09/17 06:55:04;;;;;;;;;;;19.00;49.40;;;18.11;50.21;101225.41;12146699;19;19934;-86
2023/09/17 06:59:06;;;;;;;;;;;19.10;49.70;;;18.22;50.11;101229.84;12143613;19;19926;-85
2023/09/17 07:03:08;;;;;;;;;;;19.10;49.90;;;18.25;50.02;101223.50;12143487;19;20668;-85
2023/09/17 07:07:10;;;;;;;;;;;19.20;49.90;;;18.27;50.20;101218.94;12145909;19;19947;-86
2023/09/17 07:11:11;;;;;;;;;;;19.20;49.90;;;18.42;50.04;101230.94;12140971;19;19957;-85
2023/09/17 07:15:13;;;;;;;;;;;19.30;50.00;;;18.49;50.12;101232.09;12144518;19;19946;-84
2023/09/17 07:19:15;;;;;;;;;;;19.40;50.30;;;18.55;50.31;101225.47;12144072;19;19927;-85
2023/09/17 07:23:17;;;;;;;;;;;19.50;50.40;;;18.66;50.28;101229.88;12142368;19;19926;-85
2023/09/17 07:27:19;;;;;;;;;;;19.70;50.60;;;18.61;50.50;101203.84;12132976;19;19951;-84
2023/09/17 07:31:20;;;;;;;;;;;19.80;50.60;;;19.00;50.43;101241.25;12135107;19;20849;-84
2023/09/17 07:35:22;;;;;;;;;;;19.90;50.50;;;19.04;50.80;101233.88;12140742;19;20298;-84
2023/09/17 07:39:23;;;;;;;;;;;20.10;50.90;;;19.23;50.67;101248.13;12141096;19;19986;-85
2023/09/17 07:43:25;;;;;;;;;;;20.20;50.80;;;19.40;50.87;101237.91;12141137;19;19919;-84
2023/09/17 07:47:27;;;;;;;;;;;20.40;50.90;;;19.47;51.20;101231.16;12139166;19;20676;-84
2023/09/17 07:51:28;;;;;;;;;;;20.60;50.90;;;19.73;50.77;101247.47;12134057;19;19934;-84
2023/09/17 07:55:29;;;;;;;;;;;20.80;50.90;;;19.92;51.02;101243.25;12135850;19;20684;-85
2023/09/17 07:59:31;;;;;;;;;;;21.00;51.00;;;20.07;50.88;101244.59;12137177;19;20011;-84
2023/09/17 08:03:32;;;;;;;;;;;21.10;50.80;;;20.23;51.23;101247.56;12135631;19;19957;-84
2023/09/17 08:07:35;;;;;;;;;;;21.30;51.10;;;20.18;51.04;101219.78;12135968;19;20257;-84
2023/09/17 08:11:37;;;;;;;;;;;21.50;50.90;;;20.49;51.22;101236.44;12140901;19;20046;-84
2023/09/17 08:15:39;;;;;;;;;;;21.60;50.90;;;20.71;51.18;101254.84;12151774;19;20640;-84
2023/09/17 08:19:40;;;;;;;;;;;21.80;51.10;;;20.83;51.33;101244.94;12147712;19;19942;-84
2023/09/17 08:23:42;;;;;;;;;;;22.00;51.10;;;21.11;51.22;101264.47;12150109;19;19922;-85
2023/09/17 08:27:46;;;;;;;;;;;22.20;51.10;;;21.32;51.46;101258.19;12149080;19;19946;-84
2023/09/17 08:31:48;;;;;;;;;;;22.50;51.10;;;21.38;51.56;101223.09;12136394;19;19945;-85
2023/09/17 08:35:49;;;;;;;;;;;22.70;51.20;;;21.75;51.90;101240.94;12151372;19;19923;-85
2023/09/17 08:39:51;;;;;;;;;;;22.90;51.10;;;21.98;51.85;101242.25;12146104;19;19951;-85
2023/09/17 08:43:54;;;;;;;;;;;23.20;51.10;;;22.17;51.86;101246.66;12151755;19;19941;-85
2023/09/17 08:47:56;;;;;;;;;;;23.40;51.20;;;22.40;51.49;101249.75;12144221;19;20276;-85
2023/09/17 08:52:02;;;;;;;;;;;23.60;50.90;;;22.60;51.56;101249.63;12148643;19;19930;-85
2023/09/17 08:56:04;;;;;;;;;;;23.90;50.80;;;22.63;51.83;101206.72;12147457;19;20476;-84
2023/09/17 09:00:10;;;;;;;;;;;24.00;50.50;;;23.07;51.63;101239.66;12145652;19;20230;-84
2023/09/17 09:04:12;;;;;;;;;;;24.30;50.50;;;23.28;51.74;101247.31;12149685;19;19923;-85
2023/09/17 09:08:14;;;;;;;;;;;24.50;50.40;;;23.44;51.67;101237.75;12144653;19;20357;-85
2023/09/17 09:12:16;;;;;;;;;;;24.70;50.30;;;23.68;51.52;101234.41;12148242;19;20205;-84
2023/09/17 09:16:18;;;;;;;;;;;24.90;50.30;;;23.87;51.69;101220.03;12145616;19;19923;-85
2023/09/17 09:20:19;;;;;;;;;;;25.10;50.30;;;24.09;51.66;101232.81;12144024;19;19931;-85
2023/09/17 09:24:23;;;;;;;;;;;25.30;50.30;;;24.33;51.39;101241.91;12144978;19;20000;-85
2023/09/17 09:28:29;;;;;;;;;;;25.50;50.20;;;24.50;51.86;101239.16;12145001;19;19926;-84
2023/09/17 09:32:30;;;;;;;;;;;25.80;50.20;;;24.65;51.53;101231.31;12144885;19;21007;-85
2023/09/17 09:36:34;;;;;;;;;;;25.90;50.10;;;24.93;51.62;101236.38;12145791;19;19923;-85
2023/09/17 09:40:37;;;;;;;;;;;26.10;50.50;;;25.14;51.91;101228.69;12140571;19;20820;-84
2023/09/17 09:44:39;;;;;;;;;;;26.40;50.00;;;25.33;51.53;101229.34;12146835;19;19922;-85
2023/09/17 09:48:41;;;;;;;;;;;26.60;50.00;;;25.55;51.78;101228.66;12140433;19;19918;-85
2023/09/17 09:52:43;;;;;;;;;;;26.80;49.80;;;25.75;51.53;101222.94;12143722;19;20271;-85
2023/09/17 09:56:47;;;;;;;;;;;27.00;49.90;;;25.97;51.21;101222.19;12143629;19;19925;-85
2023/09/17 10:00:49;;;;;;;;;;;27.20;49.80;;;26.10;51.15;101210.13;12139757;19;19923;-85
2023/09/17 10:04:50;;;;;;;;;;;27.40;49.60;;;26.35;51.41;101221.53;12125510;19;19927;-85
2023/09/17 10:08:53;;;;;;;;;;;27.60;49.50;;;26.53;51.34;101227.47;12125515;19;19923;-85
2023/09/17 10:12:55;;;;;;;;;;;27.80;49.30;;;26.64;51.28;101212.84;12130071;19;19951;-86
2023/09/17 10:16:57;;;;;;;;;;;28.00;49.10;;;26.82;51.19;101218.75;12133500;19;20406;-85
2023/09/17 10:21:01;;;;;;;;;;;28.10;49.00;;;27.00;50.98;101228.31;12133235;19;20727;-85
2023/09/17 10:25:06;;;;;;;;;;;28.20;48.60;;;26.98;51.14;101203.50;12127369;19;19929;-85
2023/09/17 10:29:09;;;;;;;;;;;28.40;48.80;;;27.23;50.99;101218.41;12126588;19;20714;-85
2023/09/17 10:33:13;;;;;;;;;;;28.50;48.60;;;27.15;50.57;101187.13;12117189;19;20815;-85
2023/09/17 10:37:16;;;;;;;;;;;28.60;48.50;;;27.53;50.75;101218.47;12127972;19;20351;-85
2023/09/17 10:41:18;;;;;;;;;;;28.80;48.60;;;27.50;50.52;101181.25;12122084;19;20456;-85
2023/09/17 10:45:20;;;;;;;;;;;28.90;48.70;;;27.75;50.76;101197.91;12124877;19;19940;-85
2023/09/17 10:49:22;;;;;;;;;;;29.00;48.60;;;27.99;50.67;101218.28;12117525;19;21046;-85
2023/09/17 10:53:26;;;;;;;;;;;29.20;48.40;;;28.15;50.49;101220.75;12135689;19;19926;-85
2023/09/17 10:57:41;;;;;;;;;;;29.30;48.40;;;28.30;50.64;101214.50;12125049;19;19933;-85
2023/09/17 11:01:43;;;;;;;;;;;29.50;48.50;;;28.38;50.35;101212.56;12123107;19;19927;-85
2023/09/17 11:05:45;;;;;;;;;;;29.60;47.80;;;28.51;50.30;101227.19;12125195;19;20285;-85
2023/09/17 11:09:47;;;;;;;;;;;29.70;47.60;;;28.60;50.00;101218.81;12120934;19;21423;-85
2023/09/17 11:13:50;;;;;;;;;;;29.80;47.20;;;28.64;50.21;101217.41;12127278;19;20807;-85
2023/09/17 11:17:58;;;;;;;;;;;29.90;47.20;;;28.81;49.59;101223.38;12121148;19;20758;-85
2023/09/17 11:22:02;;;;;;;;;;;30.00;47.10;;;28.90;49.57;101222.19;12125920;19;19910;-86
2023/09/17 11:26:04;;;;;;;;;;;30.00;47.00;;;28.89;49.36;101208.94;12124383;19;21149;-86
2023/09/17 11:30:14;;;;;;;;;;;30.10;47.10;;;29.00;49.47;101221.88;12120213;19;19950;-85
2023/09/17 11:34:15;;;;;;;;;;;30.20;47.10;;;28.95;49.23;101200.13;12117867;19;19925;-86
2023/09/17 11:38:21;;;;;;;;;;;30.20;47.30;;;29.17;49.15;101217.06;12112943;19;20683;-86
2023/09/17 11:42:23;;;;;;;;;;;30.30;47.50;;;29.28;49.22;101221.09;12120058;19;19933;-85
2023/09/17 11:46:25;;;;;;;;;;;30.40;47.40;;;29.35;48.86;101216.56;12114167;19;19919;-86
2023/09/17 11:50:27;;;;;;;;;;;30.50;47.10;;;29.36;48.70;101223.63;12116138;19;19926;-85
2023/09/17 11:54:34;;;;;;;;;;;30.50;46.50;;;29.36;48.41;101220.09;12115449;19;19944;-86
2023/09/17 11:58:36;;;;;;;;;;;30.50;46.50;;;29.44;48.81;101218.09;12116118;19;19947;-85
2023/09/17 12:02:37;;;;;;;;;;;30.50;46.70;;;29.43;48.45;101205.66;12117324;19;20010;-86
2023/09/17 12:06:41;;;;;;;;;;;30.60;46.80;;;29.52;48.67;101222.50;12116385;19;19919;-86
2023/09/17 12:10:52;;;;;;;;;;;30.60;46.80;;;29.58;48.64;101212.78;12117154;19;20266;-85
2023/09/17 12:14:56;;;;;;;;;;;30.60;46.70;;;29.67;48.11;101222.38;12117090;19;21315;-85
2023/09/17 12:18:58;;;;;;;;;;;30.60;46.50;;;29.64;48.00;101206.63;12118488;19;19943;-86
2023/09/17 12:23:06;;;;;;;;;;;30.70;44.60;;;29.76;48.18;101218.53;12117934;19;19930;-86
2023/09/17 12:27:24;;;;;;;;;;;30.70;46.10;;;29.73;47.91;101211.66;12119933;19;19947;-85
2023/09/17 12:31:26;;;;;;;;;;;30.80;46.00;;;29.80;47.52;101222.47;12112974;19;19927;-87
2023/09/17 12:35:29;;;;;;;;;;;30.80;45.80;;;29.78;47.69;101211.06;12118326;19;20732;-85
2023/09/17 12:39:30;;;;;;;;;;;30.80;46.20;;;29.88;47.84;101213.38;12115316;19;20749;-86
2023/09/17 12:43:31;;;;;;;;;;;30.80;45.60;;;29.91;47.53;101221.06;12114898;19;19944;-86
2023/09/17 12:47:33;;;;;;;;;;;30.80;45.90;;;29.71;47.44;101176.03;12115548;19;19963;-86
2023/09/17 12:51:37;;;;;;;;;;;30.80;45.60;;;29.94;47.56;101204.50;12108650;19;20849;-86
2023/09/17 12:55:38;;;;;;;;;;;30.90;45.80;;;29.98;47.45;101206.59;12116256;19;20370;-85
2023/09/17 12:59:41;;;;;;;;;;;30.80;45.80;;;30.02;47.14;101207.03;12132713;19;20851;-86
2023/09/17 13:04:02;;;;;;;;;;;30.90;45.80;;;30.02;47.18;101198.13;12135523;19;20147;-86
2023/09/17 13:08:07;;;;;;;;;;;30.90;45.80;;;30.04;46.99;101201.44;12132934;19;19929;-85
2023/09/17 13:12:09;;;;;;;;;;;30.90;45.50;;;29.96;46.87;101187.09;12134492;19;19919;-86
2023/09/17 13:16:10;;;;;;;;;;;30.80;45.40;;;29.87;47.01;101174.88;12133020;19;19930;-86
2023/09/17 13:20:12;;;;;;;;;;;30.90;45.60;;;29.90;46.69;101179.84;12130351;19;19934;-86
2023/09/17 13:24:14;;;;;;;;;;;30.90;45.30;;;29.91;46.86;101183.34;12130811;19;20156;-86
2023/09/17 13:28:17;;;;;;;;;;;30.80;45.30;;;29.92;46.94;101180.47;12133025;19;19919;-86
2023/09/17 13:32:19;;;;;;;;;;;30.80;45.10;;;30.01;46.71;101194.59;12137567;19;20888;-86
2023/09/17 13:36:21;;;;;;;;;;;30.80;44.80;;;29.98;46.49;101190.44;12142156;19;19915;-86
2023/09/17 13:40:23;;;;;;;;;;;30.80;45.10;;;29.99;46.49;101177.78;12134958;19;20843;-86
2023/09/17 13:44:24;;;;;;;;;;;30.80;45.20;;;30.02;46.48;101180.09;12139712;19;19934;-86
2023/09/17 13:48:26;;;;;;;;;;;30.80;45.10;;;29.88;46.27;101152.28;12135245;19;19947;-86
2023/09/17 13:52:27;;;;;;;;;;;30.80;45.10;;;30.04;46.09;101169.94;12141183;19;19925;-86
2023/09/17 13:56:29;;;;;;;;;;;30.80;45.10;;;29.97;46.35;101161.84;12134538;19;20526;-86
2023/09/17 14:00:30;;;;;;;;;;;30.80;45.10;;;30.02;46.09;101166.63;12128304;19;19923;-85
2023/09/17 14:04:33;;;;;;;;;;;30.80;45.10;;;29.88;45.99;101138.81;12125770;19;20427;-86
2023/09/17 14:08:35;;;;;;;;;;;30.70;44.90;;;30.01;46.01;101159.56;12124249;19;19926;-86
2023/09/17 14:12:36;;;;;;;;;;;30.70;45.00;;;30.06;46.02;101164.38;12126207;19;19927;-85
2023/09/17 14:16:38;;;;;;;;;;;30.70;45.10;;;30.07;46.04;101166.00;12126222;19;19922;-86
2023/09/17 14:20:39;;;;;;;;;;;30.80;45.00;;;30.01;45.86;101148.81;12134890;19;19959;-87
2023/09/17 14:24:41;;;;;;;;;;;30.80;45.00;;;30.10;45.96;101157.53;12142828;19;19922;-87
2023/09/17 14:28:42;;;;;;;;;;;30.80;44.90;;;30.13;45.87;101157.94;12133750;19;19946;-86
2023/09/17 14:32:44;;;;;;;;;;;30.80;44.90;;;30.11;45.89;101149.25;12130643;19;20593;-86
2023/09/17 14:36:46;;;;;;;;;;;30.80;44.80;;;30.10;45.53;101144.06;12134772;19;19938;-86
2023/09/17 14:40:47;;;;;;;;;;;30.80;44.70;;;30.15;45.66;101146.97;12125160;19;19933;-86
2023/09/17 14:44:49;;;;;;;;;;;30.90;44.70;;;30.13;45.65;101149.03;12131962;19;20275;-86
2023/09/17 14:48:52;;;;;;;;;;;30.90;44.60;;;30.17;45.64;101153.00;12127855;19;19918;-86
2023/09/17 14:52:53;;;;;;;;;;;30.80;44.40;;;30.11;45.51;101143.00;12129550;19;20252;-86
2023/09/17 14:56:54;;;;;;;;;;;30.80;44.50;;;30.11;45.35;101145.72;12131250;19;20819;-86
2023/09/17 15:00:56;;;;;;;;;;;30.80;44.50;;;30.09;45.46;101139.72;12127157;19;20468;-86
2023/09/17 15:04:57;;;;;;;;;;;30.80;44.50;;;30.10;45.26;101138.66;12133071;19;19918;-87
2023/09/17 15:08:59;;;;;;;;;;;30.80;44.20;;;30.06;45.45;101137.44;12144248;19;19930;-87
2023/09/17 15:13:01;;;;;;;;;;;30.80;44.30;;;30.08;45.27;101138.84;12148760;19;20275;-87
2023/09/17 15:17:02;;;;;;;;;;;30.70;44.40;;;30.06;45.05;101137.44;12145944;19;19925;-87
2023/09/17 15:21:04;;;;;;;;;;;30.70;44.20;;;30.04;45.24;101144.88;12138794;19;19921;-87
2023/09/17 15:25:07;;;;;;;;;;;30.70;44.40;;;30.06;44.98;101149.03;12141918;19;19923;-87
2023/09/17 15:29:11;;;;;;;;;;;30.70;44.20;;;29.94;44.95;101135.31;12136078;19;19965;-87
2023/09/17 15:33:12;;;;;;;;;;;30.70;44.10;;;29.83;44.88;101113.53;12131705;19;20188;-87
2023/09/17 15:37:14;;;;;;;;;;;30.70;43.90;;;29.97;44.79;101136.75;12130397;19;19939;-88
2023/09/17 15:41:15;;;;;;;;;;;30.60;44.00;;;29.95;44.69;101134.28;12130824;19;19915;-88
2023/09/17 15:45:17;;;;;;;;;;;30.60;44.00;;;29.97;44.78;101144.84;12134368;19;19950;-87
2023/09/17 15:49:18;;;;;;;;;;;30.60;44.20;;;29.94;44.78;101138.00;12133898;19;20248;-88
2023/09/17 15:53:19;;;;;;;;;;;30.60;44.40;;;29.90;44.62;101141.31;12132596;19;19955;-87
2023/09/17 15:57:21;;;;;;;;;;;30.50;44.20;;;29.72;44.93;101104.16;12131182;19;20029;-87
2023/09/17 16:01:22;;;;;;;;;;;30.50;44.40;;;29.73;44.83;101119.28;12129758;19;20843;-87
2023/09/17 16:05:24;;;;;;;;;;;30.50;44.60;;;29.74;44.48;101129.03;12138408;19;19930;-86
2023/09/17 16:09:26;;;;;;;;;;;30.40;44.70;;;29.78;44.74;101146.44;12135648;19;19946;-85
2023/09/17 16:13:28;;;;;;;;;;;30.40;44.70;;;29.67;44.59;101126.28;12141740;19;19919;-86
2023/09/17 16:17:29;;;;;;;;;;;30.30;44.70;;;29.66;44.90;101135.41;12133303;19;19978;-85
2023/09/17 16:21:31;;;;;;;;;;;30.30;44.80;;;29.55;44.92;101128.72;12113572;19;19932;-86
2023/09/17 16:25:32;;;;;;;;;;;30.20;44.80;;;29.55;44.39;101142.16;12129507;19;19919;-88
2023/09/17 16:29:34;;;;;;;;;;;30.10;44.80;;;29.44;44.58;101139.22;12123145;19;19951;-89
2023/09/17 16:33:35;;;;;;;;;;;30.00;44.80;;;29.34;44.48;101143.09;12132873;19;20677;-88
2023/09/17 16:37:37;;;;;;;;;;;29.90;44.90;;;29.27;44.60;101149.44;12134353;19;20205;-88
2023/09/17 16:41:38;;;;;;;;;;;29.80;44.90;;;29.14;44.87;101136.78;12134868;19;19925;-88
2023/09/17 16:45:40;;;;;;;;;;;29.70;44.90;;;29.10;44.40;101140.88;12139432;19;20659;-88
2023/09/17 16:49:42;;;;;;;;;;;29.60;44.90;;;29.02;44.50;101147.19;12135908;19;19930;-88
2023/09/17 16:53:43;;;;;;;;;;;29.50;44.90;;;28.84;44.89;101147.69;12142322;19;20739;-88
2023/09/17 16:57:45;;;;;;;;;;;29.30;44.90;;;28.81;44.71;101147.22;12135366;19;20658;-88
2023/09/17 17:01:48;;;;;;;;;;;29.30;44.90;;;28.70;44.69;101143.22;12125540;19;19919;-89
2023/09/17 17:05:49;;;;;;;;;;;29.10;44.90;;;28.48;44.20;101122.75;12125859;19;19927;-88
2023/09/17 17:09:53;;;;;;;;;;;29.00;44.80;;;28.35;44.35;101115.38;12122031;19;19925;-88
2023/09/17 17:13:55;;;;;;;;;;;28.90;44.90;;;28.16;44.79;101111.47;12145932;19;19927;-88
2023/09/17 17:17:56;;;;;;;;;;;28.70;44.90;;;28.05;44.77;101117.34;12140612;19;21224;-88
2023/09/17 17:21:58;;;;;;;;;;;28.50;44.80;;;28.05;44.50;101134.28;12140316;19;19919;-88
2023/09/17 17:25:59;;;;;;;;;;;28.40;44.80;;;27.93;44.60;101130.44;12139194;19;19927;-88
2023/09/17 17:30:02;;;;;;;;;;;28.30;44.90;;;27.83;44.48;101129.91;12126323;19;19922;-89
2023/09/17 17:34:03;;;;;;;;;;;28.20;45.00;;;27.69;44.67;101132.41;12128407;19;19938;-89
2023/09/17 17:38:08;;;;;;;;;;;28.10;45.00;;;27.63;44.62;101138.50;12127424;19;19922;-88
2023/09/17 17:42:09;;;;;;;;;;;28.00;45.00;;;27.55;45.11;101139.44;12125217;19;20319;-88
2023/09/17 17:46:11;;;;;;;;;;;27.90;45.10;;;27.33;44.59;101118.94;12125229;19;19929;-88
2023/09/17 17:50:12;;;;;;;;;;;27.80;45.10;;;27.35;44.69;101136.50;12120091;19;20272;-87
2023/09/17 17:54:14;;;;;;;;;;;27.70;45.20;;;27.28;44.79;101134.75;12127686;19;19915;-88
2023/09/17 17:58:16;;;;;;;;;;;27.50;45.10;;;27.15;44.68;101136.16;12126169;19;19922;-90
2023/09/17 18:02:18;;;;;;;;;;;27.50;45.10;;;26.98;44.71;101128.47;12126436;19;19942;-90
2023/09/17 18:06:20;;;;;;;;;;;27.30;45.00;;;26.89;44.46;101138.44;12122097;19;20394;-88
2023/09/17 18:10:22;;;;;;;;;;;27.20;45.10;;;26.78;45.02;101138.88;12120602;19;19922;-88